Time;durP1;ratioP1;P1;durP2;ratioP2;P2;SDS_P1;SDS_P2;PMS_P1;PMS_P2;Temp;Humidity;BMP_temperature;BMP_pressure;BME280_temperature;BME280_humidity;BME280_pressure;Samples;Min_cycle;Max_cycle;Signal;HPM_P1;HPM_P2
2021/08/11 00:01:30;;;;;;;;;;;;;;;22.48;57.39;101539.19;2174282;40;115700;-53
2021/08/11 00:03:02;;;;;;;;;;;;;;;22.49;57.37;101540.84;2174248;40;115729;-53
2021/08/11 00:04:34;;;;;;;;;;;;;;;22.47;57.36;101540.31;2171789;40;114548;-53
2021/08/11 00:06:06;;;;;;;;;;;;;;;22.47;57.41;101545.13;2171017;40;115692;-52
2021/08/11 00:07:38;;;;;;;;;;;;;;;22.47;57.39;101548.78;2186121;39;115889;-52
2021/08/11 00:09:09;;;;;;;;;;;;;;;22.47;57.44;101543.16;2178259;39;116221;-52
2021/08/11 00:10:41;;;;;;;;;;;;;;;22.46;57.27;101541.47;2185431;39;115533;-53
2021/08/11 00:12:13;;;;;;;;;;;;;;;22.45;57.42;101548.22;2176007;40;115735;-53
2021/08/11 00:13:45;;;;;;;;;;;;;;;22.45;57.26;101547.41;2174081;40;117339;-53
2021/08/11 00:15:16;;;;;;;;;;;;;;;22.46;57.22;101547.09;2174185;40;115591;-53
2021/08/11 00:16:48;;;;;;;;;;;;;;;22.45;57.34;101544.56;2173746;40;115318;-53
2021/08/11 00:18:20;;;;;;;;;;;;;;;22.44;57.39;101543.75;2173729;40;115553;-53
2021/08/11 00:19:51;;;;;;;;;;;;;;;22.45;57.22;101547.41;2188270;39;115611;-53
2021/08/11 00:21:23;;;;;;;;;;;;;;;22.43;57.35;101547.72;2178168;39;113950;-53
2021/08/11 00:22:55;;;;;;;;;;;;;;;22.44;57.20;101546.56;2179688;40;114183;-53
2021/08/11 00:24:26;;;;;;;;;;;;;;;22.43;57.32;101547.72;2168939;40;113797;-53
2021/08/11 00:25:58;;;;;;;;;;;;;;;22.42;57.24;101551.69;2168169;40;114130;-53
2021/08/11 00:27:29;;;;;;;;;;;;;;;22.42;57.18;101548.03;2174527;40;113942;-53
2021/08/11 00:29:01;;;;;;;;;;;;;;;22.42;57.31;101553.66;2185730;39;113928;-53
2021/08/11 00:30:33;;;;;;;;;;;;;;;22.41;57.29;101549.16;2175107;40;113713;-53
2021/08/11 00:32:05;;;;;;;;;;;;;;;22.40;57.20;101548.31;2174202;40;113690;-53
2021/08/11 00:33:36;;;;;;;;;;;;;;;22.39;57.15;101552.31;2174203;40;113881;-53
2021/08/11 00:35:08;;;;;;;;;;;;;;;22.38;57.13;101539.34;2173780;40;113659;-52
2021/08/11 00:36:40;;;;;;;;;;;;;;;22.38;57.31;101542.16;2174503;40;113724;-53
2021/08/11 00:38:12;;;;;;;;;;;;;;;22.39;57.05;101540.19;2174476;40;113816;-53
2021/08/11 00:39:45;;;;;;;;;;;;;;;22.38;56.82;101539.34;2173817;40;113730;-53
2021/08/11 00:41:17;;;;;;;;;;;;;;;22.37;57.14;101537.69;2176528;40;113689;-53
2021/08/11 00:42:49;;;;;;;;;;;;;;;22.38;57.16;101535.69;2173639;40;114748;-52
2021/08/11 00:44:21;;;;;;;;;;;;;;;22.37;57.05;101543.31;2183952;39;114721;-53
2021/08/11 00:45:53;;;;;;;;;;;;;;;22.37;57.04;101537.69;2177880;39;114797;-53
2021/08/11 00:47:28;;;;;;;;;;;;;;;22.37;57.06;101537.69;2174205;40;113833;-53
2021/08/11 00:49:01;;;;;;;;;;;;;;;22.35;57.03;101533.50;2173969;40;114641;-53
2021/08/11 00:50:33;;;;;;;;;;;;;;;22.37;57.03;101532.03;2174462;40;116661;-53
2021/08/11 00:52:05;;;;;;;;;;;;;;;22.37;56.89;101534.03;2174457;40;115139;-53
2021/08/11 00:53:38;;;;;;;;;;;;;;;22.35;56.81;101534.31;2171890;40;115650;-53
2021/08/11 00:55:10;;;;;;;;;;;;;;;22.35;56.84;101531.50;2183762;39;114907;-53
2021/08/11 00:56:44;;;;;;;;;;;;;;;22.34;56.85;101529.84;2178013;39;114910;-53
2021/08/11 00:58:19;;;;;;;;;;;;;;;22.34;56.82;101529.00;2185245;39;113915;-53
2021/08/11 00:59:52;;;;;;;;;;;;;;;22.34;56.63;101529.84;2175284;40;113863;-53
2021/08/11 01:01:25;;;;;;;;;;;;;;;22.33;56.55;101522.53;2172492;40;115106;-53
2021/08/11 01:02:58;;;;;;;;;;;;;;;22.33;56.69;101518.88;2176731;40;114824;-53
2021/08/11 01:04:31;;;;;;;;;;;;;;;22.33;56.54;101531.00;2185994;39;115582;-52
2021/08/11 01:06:04;;;;;;;;;;;;;;;22.32;56.62;101523.69;2173123;40;114527;-53
2021/08/11 01:07:36;;;;;;;;;;;;;;;22.33;56.56;101518.88;2183379;39;115428;-53
2021/08/11 01:09:11;;;;;;;;;;;;;;;22.32;56.59;101517.22;2175510;40;114726;-53
2021/08/11 01:10:43;;;;;;;;;;;;;;;22.31;56.43;101516.38;2178169;40;115523;-53
2021/08/11 01:12:15;;;;;;;;;;;;;;;22.31;56.58;101519.19;2173301;40;115466;-53
2021/08/11 01:13:47;;;;;;;;;;;;;;;22.30;56.42;101523.16;2174029;40;115718;-53
2021/08/11 01:15:19;;;;;;;;;;;;;;;22.29;56.15;101529.94;2173684;40;115469;-53
2021/08/11 01:16:50;;;;;;;;;;;;;;;22.31;56.41;101533.25;2183826;39;114777;-53
2021/08/11 01:18:22;;;;;;;;;;;;;;;22.29;56.13;101529.94;2178191;39;115494;-53
2021/08/11 01:19:56;;;;;;;;;;;;;;;22.29;56.22;101524.31;2173915;40;115639;-53
2021/08/11 01:21:31;;;;;;;;;;;;;;;22.28;56.06;101531.06;2172995;40;116014;-53
2021/08/11 01:23:07;;;;;;;;;;;;;;;22.28;56.15;101533.88;2171743;40;115684;-53
2021/08/11 01:24:42;;;;;;;;;;;;;;;22.27;56.18;101537.84;2172422;40;116553;-52
2021/08/11 01:26:19;;;;;;;;;;;;;;;22.27;56.12;101535.03;2179593;40;114492;-53
2021/08/11 01:28:00;;;;;;;;;;;;;;;22.26;55.81;101536.16;2172506;40;114200;-53
2021/08/11 01:29:41;;;;;;;;;;;;;;;22.26;56.02;101529.72;2174358;40;113770;-53
2021/08/11 01:31:12;;;;;;;;;;;;;;;22.25;56.15;101537.31;2174442;40;113895;-53
2021/08/11 01:32:54;;;;;;;;;;;;;;;22.25;56.02;101537.31;2174140;40;113652;-53
2021/08/11 01:34:35;;;;;;;;;;;;;;;22.25;55.82;101536.47;2172523;40;114077;-53
2021/08/11 01:36:14;;;;;;;;;;;;;;;22.25;55.79;101530.84;2174299;40;113764;-53
2021/08/11 01:37:49;;;;;;;;;;;;;;;22.25;55.86;101537.31;2173552;40;114174;-53
2021/08/11 01:39:31;;;;;;;;;;;;;;;22.24;55.87;101534.81;2174322;40;114396;-53
2021/08/11 01:41:04;;;;;;;;;;;;;;;22.23;55.86;101533.97;2174308;40;113727;-53
2021/08/11 01:42:38;;;;;;;;;;;;;;;22.22;55.79;101535.09;2171534;40;113768;-53
2021/08/11 01:44:10;;;;;;;;;;;;;;;22.21;55.99;101532.59;2174277;40;113848;-54
2021/08/11 01:45:42;;;;;;;;;;;;;;;22.23;55.64;101535.94;2173690;40;113730;-53
2021/08/11 01:47:16;;;;;;;;;;;;;;;22.21;55.88;101532.59;2174191;40;113868;-53
2021/08/11 01:48:48;;;;;;;;;;;;;;;22.21;55.61;101532.59;2175942;40;114201;-52
2021/08/11 01:50:21;;;;;;;;;;;;;;;22.20;55.82;101534.59;2183952;39;115122;-53
2021/08/11 01:51:53;;;;;;;;;;;;;;;22.19;55.92;101532.91;2177204;39;116227;-53
2021/08/11 01:53:27;;;;;;;;;;;;;;;22.20;55.75;101537.41;2173616;40;114979;-53
2021/08/11 01:54:59;;;;;;;;;;;;;;;22.18;55.84;101534.88;2171002;40;114601;-53
2021/08/11 01:56:32;;;;;;;;;;;;;;;22.18;55.62;101536.84;2174219;40;116217;-52
2021/08/11 01:58:05;;;;;;;;;;;;;;;22.17;55.54;101536.00;2173585;40;114459;-53
2021/08/11 01:59:38;;;;;;;;;;;;;;;22.17;55.37;101530.38;2174088;40;114906;-52
2021/08/11 02:01:10;;;;;;;;;;;;;;;22.18;55.63;101532.06;2174619;40;115028;-52
2021/08/11 02:02:44;;;;;;;;;;;;;;;22.17;55.61;101530.38;2174549;40;114850;-53
2021/08/11 02:04:16;;;;;;;;;;;;;;;22.17;55.54;101529.53;2173453;40;115422;-53
2021/08/11 02:05:49;;;;;;;;;;;;;;;22.16;55.36;101528.72;2179460;40;115057;-52
2021/08/11 02:07:21;;;;;;;;;;;;;;;22.17;55.69;101529.53;2176132;39;113943;-53
2021/08/11 02:08:53;;;;;;;;;;;;;;;22.15;55.60;101521.44;2174740;40;114840;-53
2021/08/11 02:10:26;;;;;;;;;;;;;;;22.15;55.56;101523.41;2175901;40;113933;-53
2021/08/11 02:11:58;;;;;;;;;;;;;;;22.14;55.75;101522.56;2170027;40;115581;-53
2021/08/11 02:13:32;;;;;;;;;;;;;;;22.14;55.65;101524.53;2172842;40;115353;-53
2021/08/11 02:15:06;;;;;;;;;;;;;;;22.13;55.53;101522.84;2174971;40;115458;-53
2021/08/11 02:16:38;;;;;;;;;;;;;;;22.14;55.83;101527.34;2172870;40;115568;-53
2021/08/11 02:18:10;;;;;;;;;;;;;;;22.13;55.60;101531.31;2168599;40;115308;-52
2021/08/11 02:19:42;;;;;;;;;;;;;;;22.13;55.65;101528.47;2175287;40;115856;-53
2021/08/11 02:21:13;;;;;;;;;;;;;;;22.13;55.89;101528.47;2169499;40;115674;-53
2021/08/11 02:22:45;;;;;;;;;;;;;;;22.12;55.70;101526.84;2173823;40;115547;-53
2021/08/11 02:24:17;;;;;;;;;;;;;;;22.13;55.65;101529.31;2170713;40;116212;-52
2021/08/11 02:25:59;;;;;;;;;;;;;;;22.12;55.80;101524.81;2174299;40;115972;-53
2021/08/11 02:27:33;;;;;;;;;;;;;;;22.12;55.75;101524.81;2174803;40;115627;-53
2021/08/11 02:29:08;;;;;;;;;;;;;;;22.13;55.50;101534.13;2174855;40;115602;-53
2021/08/11 02:30:44;;;;;;;;;;;;;;;22.11;55.72;101531.63;2175096;40;114991;-52
2021/08/11 02:32:26;;;;;;;;;;;;;;;22.11;55.68;101527.97;2177396;40;115527;-53
2021/08/11 02:34:03;;;;;;;;;;;;;;;22.11;55.79;101533.59;2174726;40;114159;-53
2021/08/11 02:35:44;;;;;;;;;;;;;;;22.11;55.74;101522.34;2186096;39;114301;-53
2021/08/11 02:37:18;;;;;;;;;;;;;;;22.10;55.85;101534.72;2172730;40;113891;-52
2021/08/11 02:38:52;;;;;;;;;;;;;;;22.10;55.68;101531.91;2173826;40;114057;-52
2021/08/11 02:40:33;;;;;;;;;;;;;;;22.10;55.84;101529.09;2174771;40;113941;-53
2021/08/11 02:42:07;;;;;;;;;;;;;;;22.10;55.86;101538.38;2174773;40;113977;-53
2021/08/11 02:43:48;;;;;;;;;;;;;;;22.09;55.83;101528.25;2174433;40;113782;-53
2021/08/11 02:45:20;;;;;;;;;;;;;;;22.08;55.72;101526.59;2175181;40;114170;-53
2021/08/11 02:46:52;;;;;;;;;;;;;;;22.07;55.81;101527.75;2175015;40;113975;-53
2021/08/11 02:48:25;;;;;;;;;;;;;;;22.08;55.79;101531.38;2175063;40;113612;-53
2021/08/11 02:49:57;;;;;;;;;;;;;;;22.07;55.77;101527.75;2174562;40;114063;-53
2021/08/11 02:51:29;;;;;;;;;;;;;;;22.08;55.76;101534.19;2174849;40;113723;-53
2021/08/11 02:53:02;;;;;;;;;;;;;;;22.07;55.64;101536.19;2174035;40;114182;-53
2021/08/11 02:54:33;;;;;;;;;;;;;;;22.08;55.68;101537.00;2176964;40;113736;-53
2021/08/11 02:56:05;;;;;;;;;;;;;;;22.06;55.57;101531.69;2174219;40;114062;-53
2021/08/11 02:57:37;;;;;;;;;;;;;;;22.07;55.74;101538.16;2173863;40;114824;-53
2021/08/11 02:59:10;;;;;;;;;;;;;;;22.05;55.67;101534.81;2175126;40;115344;-57
2021/08/11 03:00:42;;;;;;;;;;;;;;;22.07;55.80;101539.00;2179922;40;115027;-53
2021/08/11 03:02:14;;;;;;;;;;;;;;;22.10;55.76;101534.72;2174249;39;114785;-53
2021/08/11 03:03:46;;;;;;;;;;;;;;;22.10;55.62;101535.56;2173784;40;115068;-53
2021/08/11 03:05:17;;;;;;;;;;;;;;;22.11;55.53;101537.25;2170962;40;114759;-52
2021/08/11 03:06:49;;;;;;;;;;;;;;;22.12;55.43;101541.72;2172725;40;114888;-53
2021/08/11 03:08:21;;;;;;;;;;;;;;;22.13;55.59;101537.78;2174792;40;114741;-53
2021/08/11 03:09:53;;;;;;;;;;;;;;;22.13;55.31;101539.75;2174037;40;113791;-53
2021/08/11 03:11:26;;;;;;;;;;;;;;;22.15;55.36;101537.47;2174167;40;115654;-53
2021/08/11 03:12:58;;;;;;;;;;;;;;;22.16;55.23;101540.00;2174694;40;115742;-53
2021/08/11 03:14:31;;;;;;;;;;;;;;;22.16;55.28;101542.81;2174578;40;114936;-53
2021/08/11 03:16:03;;;;;;;;;;;;;;;22.16;55.18;101545.63;2182783;40;114917;-53
2021/08/11 03:17:36;;;;;;;;;;;;;;;22.17;55.09;101540.81;2175776;40;115004;-53
2021/08/11 03:19:09;;;;;;;;;;;;;;;22.17;55.25;101546.44;2174307;40;116942;-53
2021/08/11 03:20:40;;;;;;;;;;;;;;;22.17;55.24;101546.44;2186068;39;116583;-53
2021/08/11 03:22:12;;;;;;;;;;;;;;;22.18;55.05;101543.31;2177883;39;116086;-52
2021/08/11 03:23:43;;;;;;;;;;;;;;;22.19;55.14;101538.53;2177124;39;114658;-53
2021/08/11 03:25:15;;;;;;;;;;;;;;;22.20;55.24;101542.19;2173301;40;115720;-53
2021/08/11 03:26:47;;;;;;;;;;;;;;;22.21;55.26;101546.69;2175607;40;115764;-53
2021/08/11 03:28:18;;;;;;;;;;;;;;;22.20;55.23;101545.84;2175911;40;115443;-52
2021/08/11 03:29:50;;;;;;;;;;;;;;;22.18;55.03;101540.50;2179902;39;115495;-53
2021/08/11 03:31:22;;;;;;;;;;;;;;;22.20;55.17;101545.84;2172507;40;116219;-53
2021/08/11 03:32:54;;;;;;;;;;;;;;;22.21;55.37;101549.50;2174023;40;115529;-53
2021/08/11 03:34:25;;;;;;;;;;;;;;;22.19;55.10;101541.34;2174154;40;115594;-53
2021/08/11 03:35:57;;;;;;;;;;;;;;;22.21;55.69;101538.25;2172524;40;115563;-52
2021/08/11 03:37:28;;;;;;;;;;;;;;;22.18;55.11;101536.84;2174593;40;115672;-53
2021/08/11 03:39:01;;;;;;;;;;;;;;;22.17;54.36;101538.81;2177003;40;115294;-53
2021/08/11 03:40:33;;;;;;;;;;;;;;;22.14;54.29;101528.19;2177746;40;113946;-53
2021/08/11 03:42:04;;;;;;;;;;;;;;;22.12;54.20;101530.47;2172061;40;113697;-53
2021/08/11 03:43:36;;;;;;;;;;;;;;;22.11;54.43;101527.97;2174482;40;113735;-53
2021/08/11 03:45:08;;;;;;;;;;;;;;;22.08;54.23;101525.75;2174715;40;114033;-52
2021/08/11 03:46:40;;;;;;;;;;;;;;;22.05;54.24;101529.19;2186016;39;113822;-53
2021/08/11 03:48:11;;;;;;;;;;;;;;;22.03;55.30;101532.28;2178404;39;113904;-53
2021/08/11 03:49:45;;;;;;;;;;;;;;;22.05;55.05;101530.03;2173793;40;113942;-53
2021/08/11 03:51:17;;;;;;;;;;;;;;;22.06;54.81;101531.69;2174704;40;113853;-53
2021/08/11 03:52:49;;;;;;;;;;;;;;;22.07;54.78;101535.34;2174633;40;113837;-52
2021/08/11 03:54:21;;;;;;;;;;;;;;;22.07;54.84;101538.16;2174097;40;113912;-52
2021/08/11 03:55:52;;;;;;;;;;;;;;;22.08;54.81;101542.63;2174653;40;113731;-53
2021/08/11 03:57:24;;;;;;;;;;;;;;;22.07;54.54;101539.00;2172509;40;113701;-53
2021/08/11 03:58:56;;;;;;;;;;;;;;;22.07;54.86;101538.16;2174637;40;113722;-53
2021/08/11 04:00:27;;;;;;;;;;;;;;;22.06;55.00;101534.50;2177479;40;114043;-53
2021/08/11 04:02:01;;;;;;;;;;;;;;;22.06;54.81;101542.13;2174531;40;114905;-52
2021/08/11 04:03:33;;;;;;;;;;;;;;;22.05;54.87;101541.28;2178578;40;114914;-52
2021/08/11 04:05:06;;;;;;;;;;;;;;;22.07;54.74;101546.59;2176053;40;114898;-53
2021/08/11 04:06:37;;;;;;;;;;;;;;;22.06;54.76;101548.59;2186116;39;114903;-54
2021/08/11 04:08:09;;;;;;;;;;;;;;;22.05;54.92;101557.31;2177980;39;114753;-53
2021/08/11 04:09:41;;;;;;;;;;;;;;;22.05;54.71;101562.94;2174682;40;115117;-53
2021/08/11 04:11:13;;;;;;;;;;;;;;;22.05;54.79;101566.59;2167819;40;114888;-53
2021/08/11 04:12:44;;;;;;;;;;;;;;;22.05;54.61;101565.75;2171335;40;113868;-53
2021/08/11 04:14:16;;;;;;;;;;;;;;;22.05;54.76;101568.56;2173989;40;115483;-52
2021/08/11 04:15:48;;;;;;;;;;;;;;;22.05;54.74;101562.94;2174245;40;114791;-53
2021/08/11 04:17:20;;;;;;;;;;;;;;;22.05;54.62;101565.75;2174001;40;114803;-53
2021/08/11 04:18:51;;;;;;;;;;;;;;;22.05;54.78;101565.75;2185121;39;114801;-53
2021/08/11 04:20:23;;;;;;;;;;;;;;;22.04;54.73;101567.75;2175938;40;114896;-53
2021/08/11 04:21:55;;;;;;;;;;;;;;;22.03;54.87;101568.88;2176777;40;115421;-53
2021/08/11 04:23:27;;;;;;;;;;;;;;;22.04;54.86;101561.28;2172897;40;115532;-52
2021/08/11 04:24:59;;;;;;;;;;;;;;;22.03;54.72;101568.06;2174439;40;115494;-53
2021/08/11 04:26:30;;;;;;;;;;;;;;;22.03;54.70;101568.88;2174508;40;115468;-54
2021/08/11 04:28:03;;;;;;;;;;;;;;;22.02;54.58;101560.75;2174196;40;115452;-53
2021/08/11 04:29:35;;;;;;;;;;;;;;;22.02;54.80;101563.56;2175020;40;115514;-53
2021/08/11 04:31:07;;;;;;;;;;;;;;;22.02;54.68;101567.22;2180010;40;115739;-53
2021/08/11 04:32:38;;;;;;;;;;;;;;;22.00;54.86;101569.50;2175475;39;115768;-53
2021/08/11 04:34:10;;;;;;;;;;;;;;;22.01;54.55;101573.97;2174585;40;115722;-53
2021/08/11 04:35:41;;;;;;;;;;;;;;;22.02;54.67;101569.19;2174456;40;115601;-52
2021/08/11 04:37:14;;;;;;;;;;;;;;;22.01;54.76;101571.16;2174480;40;116054;-53
2021/08/11 04:38:45;;;;;;;;;;;;;;;22.00;54.74;101569.50;2173339;40;117206;-53
2021/08/11 04:40:17;;;;;;;;;;;;;;;22.00;54.89;101577.09;2173892;40;115553;-53
2021/08/11 04:41:49;;;;;;;;;;;;;;;22.01;54.68;101573.13;2174469;40;116416;-53
2021/08/11 04:43:21;;;;;;;;;;;;;;;22.01;54.49;101570.31;2176927;40;115511;-53
2021/08/11 04:44:52;;;;;;;;;;;;;;;21.99;54.67;101569.78;2185626;39;114131;-53
2021/08/11 04:46:24;;;;;;;;;;;;;;;21.99;54.70;101555.72;2178082;39;113866;-52
2021/08/11 04:47:56;;;;;;;;;;;;;;;21.99;54.63;101565.00;2178608;40;113581;-53
2021/08/11 04:49:27;;;;;;;;;;;;;;;22.00;54.67;101568.66;2174089;40;113794;-53
2021/08/11 04:50:59;;;;;;;;;;;;;;;22.00;54.74;101563.88;2174561;40;115021;-53
2021/08/11 04:52:31;;;;;;;;;;;;;;;22.00;54.56;101568.66;2185710;39;114043;-53
2021/08/11 04:54:03;;;;;;;;;;;;;;;22.00;54.62;101565.84;2177088;39;113601;-53
2021/08/11 04:55:35;;;;;;;;;;;;;;;22.00;54.65;101568.66;2170240;40;113862;-53
2021/08/11 04:57:07;;;;;;;;;;;;;;;21.99;54.78;101567.81;2185758;39;114170;-53
2021/08/11 04:58:39;;;;;;;;;;;;;;;22.00;54.65;101568.66;2178215;39;113911;-53
2021/08/11 05:00:11;;;;;;;;;;;;;;;21.98;54.80;101563.34;2173620;40;113786;-53
2021/08/11 05:01:42;;;;;;;;;;;;;;;21.97;54.64;101577.72;2174373;40;113851;-53
2021/08/11 05:03:14;;;;;;;;;;;;;;;21.97;54.74;101572.91;2174378;40;113758;-53
2021/08/11 05:04:46;;;;;;;;;;;;;;;21.98;54.57;101573.75;2174398;40;113645;-53
2021/08/11 05:06:19;;;;;;;;;;;;;;;21.97;54.61;101584.19;2188436;39;114049;-53
2021/08/11 05:07:51;;;;;;;;;;;;;;;21.96;54.68;101588.13;2177229;39;115060;-53
2021/08/11 05:09:23;;;;;;;;;;;;;;;21.96;54.76;101582.50;2174323;40;114974;-53
2021/08/11 05:10:54;;;;;;;;;;;;;;;21.96;54.77;101578.84;2174767;40;115722;-53
2021/08/11 05:12:29;;;;;;;;;;;;;;;21.94;54.67;101581.94;2168942;40;114866;-53
2021/08/11 05:14:00;;;;;;;;;;;;;;;21.94;54.94;101587.56;2173012;40;115032;-53
2021/08/11 05:15:32;;;;;;;;;;;;;;;21.95;54.73;101589.25;2174520;40;114756;-53
2021/08/11 05:17:04;;;;;;;;;;;;;;;21.95;54.63;101591.22;2173128;40;114852;-53
2021/08/11 05:18:35;;;;;;;;;;;;;;;21.93;54.67;101587.91;2174271;40;115064;-53
2021/08/11 05:20:07;;;;;;;;;;;;;;;21.94;54.69;101596.00;2174189;40;114839;-53
2021/08/11 05:21:39;;;;;;;;;;;;;;;21.94;54.81;101590.38;2173542;40;114866;-53
2021/08/11 05:23:10;;;;;;;;;;;;;;;21.93;54.83;101582.28;2174335;40;115185;-53
2021/08/11 05:24:42;;;;;;;;;;;;;;;21.94;54.56;101593.19;2174462;40;115103;-53
2021/08/11 05:26:14;;;;;;;;;;;;;;;21.94;54.77;101595.22;2174675;40;115013;-53
2021/08/11 05:27:46;;;;;;;;;;;;;;;21.92;54.53;101598.28;2188132;39;115482;-53
2021/08/11 05:29:18;;;;;;;;;;;;;;;21.92;54.60;101591.81;2177972;39;115739;-53
2021/08/11 05:30:49;;;;;;;;;;;;;;;21.92;54.65;101597.44;2174375;40;115561;-53
2021/08/11 05:32:21;;;;;;;;;;;;;;;21.89;54.88;101587.63;2174076;40;116841;-52
2021/08/11 05:33:52;;;;;;;;;;;;;;;21.89;54.83;101587.63;2174139;40;115644;-52
2021/08/11 05:35:24;;;;;;;;;;;;;;;21.89;54.79;101595.25;2173489;40;116430;-53
2021/08/11 05:36:55;;;;;;;;;;;;;;;21.88;55.00;101591.59;2174316;40;114849;-52
2021/08/11 05:38:28;;;;;;;;;;;;;;;21.90;54.94;101588.44;2174335;40;115614;-53
2021/08/11 05:40:00;;;;;;;;;;;;;;;21.88;54.91;101596.38;2173907;40;115100;-54
2021/08/11 05:41:32;;;;;;;;;;;;;;;21.89;55.03;101586.78;2174597;40;115628;-53
2021/08/11 05:43:04;;;;;;;;;;;;;;;21.90;54.88;101591.25;2185754;39;115580;-53
2021/08/11 05:44:35;;;;;;;;;;;;;;;21.94;56.18;101596.00;2177614;39;115820;-53
2021/08/11 05:46:07;;;;;;;;;;;;;;;21.95;56.44;101596.84;2174258;40;115617;-53
2021/08/11 05:47:39;;;;;;;;;;;;;;;21.96;56.32;101595.72;2174280;40;115861;-53
2021/08/11 05:49:11;;;;;;;;;;;;;;;21.98;56.79;101591.47;2172519;40;114589;-53
2021/08/11 05:50:43;;;;;;;;;;;;;;;21.99;56.85;101600.72;2174123;40;113957;-53
2021/08/11 05:52:14;;;;;;;;;;;;;;;22.01;57.18;101604.09;2174401;40;113647;-53
2021/08/11 05:53:46;;;;;;;;;;;;;;;22.01;57.10;101613.38;2174230;40;113682;-52
2021/08/11 05:55:18;;;;;;;;;;;;;;;22.03;57.09;101610.28;2173449;40;113795;-53
2021/08/11 05:56:49;;;;;;;;;;;;;;;22.03;57.41;101608.28;2174050;40;113640;-53
2021/08/11 05:58:21;;;;;;;;;;;;;;;22.04;57.32;101606.28;2173757;40;113636;-53
2021/08/11 05:59:53;;;;;;;;;;;;;;;22.06;57.55;101604.03;2173857;40;113900;-53
2021/08/11 06:01:25;;;;;;;;;;;;;;;22.06;57.48;101609.66;2172003;40;113985;-53
2021/08/11 06:02:57;;;;;;;;;;;;;;;22.07;57.90;101600.09;2173874;40;113829;-53
2021/08/11 06:04:30;;;;;;;;;;;;;;;22.09;58.01;101606.22;2173666;40;113858;-53
2021/08/11 06:06:01;;;;;;;;;;;;;;;22.11;58.32;101607.63;2185184;39;114157;-53
2021/08/11 06:07:33;;;;;;;;;;;;;;;22.14;58.17;101609.81;2177074;39;113782;-53
2021/08/11 06:09:05;;;;;;;;;;;;;;;22.16;58.25;101609.53;2172058;40;113901;-52
2021/08/11 06:10:36;;;;;;;;;;;;;;;22.18;58.20;101613.69;2176764;40;113732;-53
2021/08/11 06:12:08;;;;;;;;;;;;;;;22.21;58.38;101609.44;2173967;40;115062;-55
2021/08/11 06:13:40;;;;;;;;;;;;;;;22.25;58.32;101618.97;2173568;40;114853;-53
2021/08/11 06:15:12;;;;;;;;;;;;;;;22.28;58.24;101607.06;2173658;40;115134;-53
2021/08/11 06:16:43;;;;;;;;;;;;;;;22.31;58.39;101608.44;2173554;40;113990;-53
2021/08/11 06:18:15;;;;;;;;;;;;;;;22.33;58.33;101604.19;2173627;40;114623;-52
2021/08/11 06:19:47;;;;;;;;;;;;;;;22.38;58.26;101608.91;2170980;40;114975;-53
2021/08/11 06:21:19;;;;;;;;;;;;;;;22.40;58.20;101610.25;2173222;40;114699;-53
2021/08/11 06:22:51;;;;;;;;;;;;;;;22.43;58.12;101606.84;2173707;40;114991;-53
2021/08/11 06:24:24;;;;;;;;;;;;;;;22.46;57.87;101603.41;2185587;39;113833;-53
2021/08/11 06:25:56;;;;;;;;;;;;;;;22.50;57.66;101598.00;2177127;39;114293;-53
2021/08/11 06:27:27;;;;;;;;;;;;;;;22.53;57.57;101597.41;2173820;40;113841;-53
2021/08/11 06:28:59;;;;;;;;;;;;;;;22.56;57.48;101602.41;2172150;40;114845;-53
2021/08/11 06:30:31;;;;;;;;;;;;;;;22.60;57.32;101604.31;2173527;40;114415;-53
2021/08/11 06:32:03;;;;;;;;;;;;;;;22.63;57.25;101609.34;2176146;40;114855;-53
2021/08/11 06:33:35;;;;;;;;;;;;;;;22.69;57.15;101603.63;2171792;40;115461;-53
2021/08/11 06:35:07;;;;;;;;;;;;;;;22.72;56.99;101609.50;2173605;40;114781;-53
2021/08/11 06:36:39;;;;;;;;;;;;;;;22.74;56.96;101603.56;2173493;40;115216;-53
2021/08/11 06:38:10;;;;;;;;;;;;;;;22.78;56.87;101601.81;2173857;40;116058;-53
2021/08/11 06:39:42;;;;;;;;;;;;;;;22.82;56.83;101611.31;2184944;39;116085;-53
2021/08/11 06:41:16;;;;;;;;;;;;;;;22.83;56.73;101607.34;2177320;39;116128;-53
2021/08/11 06:42:49;;;;;;;;;;;;;;;22.88;56.64;101601.63;2184942;39;115596;-52
2021/08/11 06:44:21;;;;;;;;;;;;;;;22.91;56.40;101609.47;2174380;40;115560;-53
2021/08/11 06:45:53;;;;;;;;;;;;;;;22.94;56.52;101617.31;2173000;40;115652;-52
2021/08/11 06:47:25;;;;;;;;;;;;;;;22.97;56.29;101614.72;2185914;39;115509;-53
2021/08/11 06:48:56;;;;;;;;;;;;;;;23.00;56.32;101616.06;2178155;39;115591;-53
2021/08/11 06:50:28;;;;;;;;;;;;;;;23.03;56.12;101624.72;2174924;40;115478;-52
2021/08/11 06:51:59;;;;;;;;;;;;;;;23.07;56.01;101624.13;2168915;40;115646;-53
2021/08/11 06:53:31;;;;;;;;;;;;;;;23.09;55.99;101622.66;2173697;40;115474;-53
2021/08/11 06:55:06;;;;;;;;;;;;;;;23.12;55.94;101621.22;2172634;40;115696;-53
2021/08/11 06:56:38;;;;;;;;;;;;;;;23.14;55.83;101622.56;2173691;40;113940;-52
2021/08/11 06:58:10;;;;;;;;;;;;;;;23.17;55.70;101619.13;2179988;40;113678;-53
2021/08/11 06:59:43;;;;;;;;;;;;;;;23.19;55.44;101619.66;2186285;39;113752;-53
2021/08/11 07:01:15;;;;;;;;;;;;;;;23.23;55.43;101617.91;2179622;39;114136;-53
2021/08/11 07:02:47;;;;;;;;;;;;;;;23.25;55.42;101618.44;2176400;40;113763;-53
2021/08/11 07:04:20;;;;;;;;;;;;;;;23.29;55.34;101618.63;2174657;40;113925;-52
2021/08/11 07:05:52;;;;;;;;;;;;;;;23.32;54.93;101623.66;2174759;40;113621;-53
2021/08/11 07:07:23;;;;;;;;;;;;;;;23.33;54.96;101617.72;2168729;40;113762;-53
2021/08/11 07:08:55;;;;;;;;;;;;;;;23.35;54.99;101617.38;2173605;40;113822;-53
2021/08/11 07:10:27;;;;;;;;;;;;;;;23.37;54.80;101624.41;2174767;40;113728;-53
2021/08/11 07:11:58;;;;;;;;;;;;;;;23.39;54.87;101621.28;2174347;40;113813;-52
2021/08/11 07:13:30;;;;;;;;;;;;;;;23.41;54.63;101625.44;2185904;39;113636;-53
2021/08/11 07:15:02;;;;;;;;;;;;;;;23.43;54.43;101627.97;2178144;39;113649;-53
2021/08/11 07:16:35;;;;;;;;;;;;;;;23.45;54.25;101626.53;2176438;40;114506;-53
2021/08/11 07:18:07;;;;;;;;;;;;;;;23.47;54.32;101627.06;2174548;40;115390;-53
2021/08/11 07:19:39;;;;;;;;;;;;;;;23.48;54.26;101625.06;2174597;40;114802;-53
2021/08/11 07:21:11;;;;;;;;;;;;;;;23.49;54.20;101632.38;2179514;40;113961;-54
2021/08/11 07:22:43;;;;;;;;;;;;;;;23.52;54.36;101628.09;2175782;40;115335;-53
2021/08/11 07:24:15;;;;;;;;;;;;;;;23.53;54.19;101633.41;2174514;40;115083;-53
2021/08/11 07:25:47;;;;;;;;;;;;;;;23.54;54.25;101635.09;2173863;40;115265;-52
2021/08/11 07:27:18;;;;;;;;;;;;;;;23.57;54.03;101630.81;2171961;40;113892;-53
2021/08/11 07:28:50;;;;;;;;;;;;;;;23.58;54.20;101630.50;2174572;40;113816;-53
2021/08/11 07:30:22;;;;;;;;;;;;;;;23.58;54.03;101630.50;2173513;40;115099;-53
2021/08/11 07:31:54;;;;;;;;;;;;;;;23.61;53.92;101629.03;2184131;39;115589;-53
2021/08/11 07:33:25;;;;;;;;;;;;;;;23.61;53.98;101635.53;2177720;39;114388;-52
2021/08/11 07:34:57;;;;;;;;;;;;;;;23.62;53.90;101631.53;2180021;40;115275;-53
2021/08/11 07:36:28;;;;;;;;;;;;;;;23.64;53.75;101636.88;2173706;40;114836;-53
2021/08/11 07:38:01;;;;;;;;;;;;;;;23.65;53.83;101635.72;2176616;40;114785;-53
2021/08/11 07:39:33;;;;;;;;;;;;;;;23.66;53.59;101645.88;2174535;40;116134;-53
2021/08/11 07:41:04;;;;;;;;;;;;;;;23.67;53.44;101644.72;2174528;40;115585;-53
2021/08/11 07:42:36;;;;;;;;;;;;;;;23.69;53.43;101642.41;2174237;40;115874;-53
2021/08/11 07:44:08;;;;;;;;;;;;;;;23.69;53.48;101648.91;2174243;40;115480;-53
2021/08/11 07:45:39;;;;;;;;;;;;;;;23.70;53.33;101641.28;2179855;40;115535;-53
2021/08/11 07:47:20;;;;;;;;;;;;;;;23.70;53.40;101642.13;2175911;40;115959;-53
2021/08/11 07:48:52;;;;;;;;;;;;;;;23.71;53.60;101648.59;2175040;40;115901;-52
2021/08/11 07:50:26;;;;;;;;;;;;;;;23.71;53.71;101640.13;2175013;40;115780;-56